sensor_id;sensor_type;location;lat;lon;timestamp;temperature;humidity
66102;HTU21D;52883;51.094;5.880;2023-03-30T00:00:36;12.87;118.99
66102;HTU21D;52883;51.094;5.880;2023-03-30T00:03:03;12.89;118.99
66102;HTU21D;52883;51.094;5.880;2023-03-30T00:05:29;12.92;118.99
66102;HTU21D;52883;51.094;5.880;2023-03-30T00:07:55;12.95;118.99
66102;HTU21D;52883;51.094;5.880;2023-03-30T00:10:21;13.01;118.99
66102;HTU21D;52883;51.094;5.880;2023-03-30T00:12:48;13.07;118.99
66102;HTU21D;52883;51.094;5.880;2023-03-30T00:15:19;13.22;118.99
66102;HTU21D;52883;51.094;5.880;2023-03-30T00:17:46;13.40;118.99
66102;HTU21D;52883;51.094;5.880;2023-03-30T00:20:13;13.54;118.99
66102;HTU21D;52883;51.094;5.880;2023-03-30T00:22:40;13.66;118.99
66102;HTU21D;52883;51.094;5.880;2023-03-30T00:25:08;13.74;118.99
66102;HTU21D;52883;51.094;5.880;2023-03-30T00:27:38;13.82;118.99
66102;HTU21D;52883;51.094;5.880;2023-03-30T00:30:06;13.91;118.99
66102;HTU21D;52883;51.094;5.880;2023-03-30T00:32:33;13.95;118.99
66102;HTU21D;52883;51.094;5.880;2023-03-30T00:34:59;13.96;118.99
66102;HTU21D;52883;51.094;5.880;2023-03-30T00:37:25;13.97;118.99
66102;HTU21D;52883;51.094;5.880;2023-03-30T00:39:52;13.96;118.99
66102;HTU21D;52883;51.094;5.880;2023-03-30T00:42:19;13.97;118.99
66102;HTU21D;52883;51.094;5.880;2023-03-30T00:45:09;13.96;118.99
66102;HTU21D;52883;51.094;5.880;2023-03-30T00:47:50;13.90;118.99
66102;HTU21D;52883;51.094;5.880;2023-03-30T00:50:21;13.82;118.99
66102;HTU21D;52883;51.094;5.880;2023-03-30T00:52:50;13.75;118.99
66102;HTU21D;52883;51.094;5.880;2023-03-30T00:55:19;13.66;118.99
66102;HTU21D;52883;51.094;5.880;2023-03-30T00:57:47;13.64;118.99
66102;HTU21D;52883;51.094;5.880;2023-03-30T01:00:14;13.63;118.99
66102;HTU21D;52883;51.094;5.880;2023-03-30T01:02:46;13.63;118.99
66102;HTU21D;52883;51.094;5.880;2023-03-30T01:05:13;13.63;118.99
66102;HTU21D;52883;51.094;5.880;2023-03-30T01:07:40;13.66;118.99
66102;HTU21D;52883;51.094;5.880;2023-03-30T01:10:08;13.70;118.99
66102;HTU21D;52883;51.094;5.880;2023-03-30T01:12:36;13.69;118.99
66102;HTU21D;52883;51.094;5.880;2023-03-30T01:15:02;13.66;118.99
66102;HTU21D;52883;51.094;5.880;2023-03-30T01:17:47;13.61;118.99
66102;HTU21D;52883;51.094;5.880;2023-03-30T01:29:55;13.74;118.99
66102;HTU21D;52883;51.094;5.880;2023-03-30T01:32:39;13.67;118.99
66102;HTU21D;52883;51.094;5.880;2023-03-30T01:43:37;13.25;118.99
66102;HTU21D;52883;51.094;5.880;2023-03-30T01:46:29;13.31;118.99
66102;HTU21D;52883;51.094;5.880;2023-03-30T01:52:00;13.67;118.99
66102;HTU21D;52883;51.094;5.880;2023-03-30T01:54:44;13.67;118.99
66102;HTU21D;52883;51.094;5.880;2023-03-30T01:57:16;13.54;118.99
66102;HTU21D;52883;51.094;5.880;2023-03-30T01:59:54;13.36;118.99
66102;HTU21D;52883;51.094;5.880;2023-03-30T02:02:27;13.31;118.99
66102;HTU21D;52883;51.094;5.880;2023-03-30T02:04:57;13.20;118.99
66102;HTU21D;52883;51.094;5.880;2023-03-30T02:07:29;13.07;118.99
66102;HTU21D;52883;51.094;5.880;2023-03-30T02:10:02;12.95;118.99
66102;HTU21D;52883;51.094;5.880;2023-03-30T02:12:29;12.86;118.99
66102;HTU21D;52883;51.094;5.880;2023-03-30T02:15:00;12.80;118.99
66102;HTU21D;52883;51.094;5.880;2023-03-30T02:17:28;12.77;118.99
66102;HTU21D;52883;51.094;5.880;2023-03-30T02:19:56;12.82;118.99
66102;HTU21D;52883;51.094;5.880;2023-03-30T02:22:23;13.02;118.99
66102;HTU21D;52883;51.094;5.880;2023-03-30T02:24:53;13.08;118.99
66102;HTU21D;52883;51.094;5.880;2023-03-30T02:27:21;13.09;118.99
66102;HTU21D;52883;51.094;5.880;2023-03-30T02:29:48;13.02;118.99
66102;HTU21D;52883;51.094;5.880;2023-03-30T02:32:27;12.96;118.99
66102;HTU21D;52883;51.094;5.880;2023-03-30T02:35:18;12.99;118.99
66102;HTU21D;52883;51.094;5.880;2023-03-30T02:40:41;12.86;118.99
66102;HTU21D;52883;51.094;5.880;2023-03-30T02:52:05;12.47;118.99
66102;HTU21D;52883;51.094;5.880;2023-03-30T02:54:56;12.52;118.99
66102;HTU21D;52883;51.094;5.880;2023-03-30T03:00:54;12.69;118.99
66102;HTU21D;52883;51.094;5.880;2023-03-30T03:03:37;12.77;118.99
66102;HTU21D;52883;51.094;5.880;2023-03-30T03:06:06;12.77;118.99
66102;HTU21D;52883;51.094;5.880;2023-03-30T03:08:38;12.70;118.99
66102;HTU21D;52883;51.094;5.880;2023-03-30T03:11:07;12.66;118.99
66102;HTU21D;52883;51.094;5.880;2023-03-30T03:13:34;12.69;118.99
66102;HTU21D;52883;51.094;5.880;2023-03-30T03:16:02;12.79;118.99
66102;HTU21D;52883;51.094;5.880;2023-03-30T03:18:29;12.90;118.99
66102;HTU21D;52883;51.094;5.880;2023-03-30T03:20:56;13.00;118.99
66102;HTU21D;52883;51.094;5.880;2023-03-30T03:23:22;13.01;118.99
66102;HTU21D;52883;51.094;5.880;2023-03-30T03:25:50;12.96;118.99
66102;HTU21D;52883;51.094;5.880;2023-03-30T03:28:18;12.90;118.99
66102;HTU21D;52883;51.094;5.880;2023-03-30T03:30:48;12.80;118.99
66102;HTU21D;52883;51.094;5.880;2023-03-30T03:33:18;12.79;118.99
66102;HTU21D;52883;51.094;5.880;2023-03-30T03:35:54;12.86;118.99
66102;HTU21D;52883;51.094;5.880;2023-03-30T03:38:25;12.93;118.99
66102;HTU21D;52883;51.094;5.880;2023-03-30T03:40:55;12.99;118.99
66102;HTU21D;52883;51.094;5.880;2023-03-30T03:43:22;13.01;118.99
66102;HTU21D;52883;51.094;5.880;2023-03-30T03:45:48;13.05;118.99
66102;HTU21D;52883;51.094;5.880;2023-03-30T03:48:17;13.06;118.99
66102;HTU21D;52883;51.094;5.880;2023-03-30T03:50:53;13.09;118.99
66102;HTU21D;52883;51.094;5.880;2023-03-30T03:53:19;13.10;118.99
66102;HTU21D;52883;51.094;5.880;2023-03-30T03:55:46;13.11;118.99
66102;HTU21D;52883;51.094;5.880;2023-03-30T03:58:13;13.14;118.99
66102;HTU21D;52883;51.094;5.880;2023-03-30T04:00:39;13.21;118.99
66102;HTU21D;52883;51.094;5.880;2023-03-30T04:03:05;13.24;118.99
66102;HTU21D;52883;51.094;5.880;2023-03-30T04:05:32;13.29;118.99
66102;HTU21D;52883;51.094;5.880;2023-03-30T04:07:58;13.30;118.99
66102;HTU21D;52883;51.094;5.880;2023-03-30T04:10:24;13.31;118.99
66102;HTU21D;52883;51.094;5.880;2023-03-30T04:12:56;13.40;118.99
66102;HTU21D;52883;51.094;5.880;2023-03-30T04:15:47;13.52;118.99
66102;HTU21D;52883;51.094;5.880;2023-03-30T04:18:35;13.66;118.99
66102;HTU21D;52883;51.094;5.880;2023-03-30T04:21:21;13.76;118.99
66102;HTU21D;52883;51.094;5.880;2023-03-30T04:24:07;13.89;118.99
66102;HTU21D;52883;51.094;5.880;2023-03-30T04:26:51;13.95;118.99
66102;HTU21D;52883;51.094;5.880;2023-03-30T04:29:35;14.00;118.99
66102;HTU21D;52883;51.094;5.880;2023-03-30T04:32:23;14.01;118.99
66102;HTU21D;52883;51.094;5.880;2023-03-30T04:34:55;14.00;118.99
66102;HTU21D;52883;51.094;5.880;2023-03-30T04:37:35;13.95;118.99
66102;HTU21D;52883;51.094;5.880;2023-03-30T04:40:21;13.97;118.99
66102;HTU21D;52883;51.094;5.880;2023-03-30T04:43:07;13.92;118.99
66102;HTU21D;52883;51.094;5.880;2023-03-30T04:46:12;13.88;118.99
66102;HTU21D;52883;51.094;5.880;2023-03-30T04:48:59;13.82;118.99
66102;HTU21D;52883;51.094;5.880;2023-03-30T04:51:43;13.73;118.99
66102;HTU21D;52883;51.094;5.880;2023-03-30T04:54:41;13.74;118.99
66102;HTU21D;52883;51.094;5.880;2023-03-30T04:57:32;13.74;118.99
66102;HTU21D;52883;51.094;5.880;2023-03-30T05:00:27;13.75;118.99
66102;HTU21D;52883;51.094;5.880;2023-03-30T05:03:15;13.77;118.99
66102;HTU21D;52883;51.094;5.880;2023-03-30T05:05:52;13.77;118.99
66102;HTU21D;52883;51.094;5.880;2023-03-30T05:08:39;13.75;118.99
66102;HTU21D;52883;51.094;5.880;2023-03-30T05:11:23;13.77;118.99
66102;HTU21D;52883;51.094;5.880;2023-03-30T05:13:55;13.79;118.99
66102;HTU21D;52883;51.094;5.880;2023-03-30T05:16:40;13.82;118.99
66102;HTU21D;52883;51.094;5.880;2023-03-30T05:19:26;13.83;118.99
66102;HTU21D;52883;51.094;5.880;2023-03-30T05:22:11;13.88;118.99
66102;HTU21D;52883;51.094;5.880;2023-03-30T05:24:57;13.83;118.99
66102;HTU21D;52883;51.094;5.880;2023-03-30T05:27:55;13.66;118.99
66102;HTU21D;52883;51.094;5.880;2023-03-30T05:30:38;13.39;118.99
66102;HTU21D;52883;51.094;5.880;2023-03-30T05:33:25;13.19;118.99
66102;HTU21D;52883;51.094;5.880;2023-03-30T05:36:10;13.08;118.99
66102;HTU21D;52883;51.094;5.880;2023-03-30T05:38:47;13.06;118.99
66102;HTU21D;52883;51.094;5.880;2023-03-30T05:41:35;13.00;118.99
66102;HTU21D;52883;51.094;5.880;2023-03-30T05:44:21;13.02;118.99
66102;HTU21D;52883;51.094;5.880;2023-03-30T05:47:05;13.11;118.99
66102;HTU21D;52883;51.094;5.880;2023-03-30T05:50:06;13.29;118.99
66102;HTU21D;52883;51.094;5.880;2023-03-30T05:52:53;13.55;118.99
66102;HTU21D;52883;51.094;5.880;2023-03-30T05:55:39;13.79;118.99
66102;HTU21D;52883;51.094;5.880;2023-03-30T05:58:27;13.91;118.99
66102;HTU21D;52883;51.094;5.880;2023-03-30T06:01:01;14.41;118.99
66102;HTU21D;52883;51.094;5.880;2023-03-30T06:03:36;14.94;118.99
66102;HTU21D;52883;51.094;5.880;2023-03-30T06:06:04;14.74;118.99
66102;HTU21D;52883;51.094;5.880;2023-03-30T06:08:30;14.54;118.99
66102;HTU21D;52883;51.094;5.880;2023-03-30T06:10:58;14.56;118.99
66102;HTU21D;52883;51.094;5.880;2023-03-30T06:13:28;14.85;118.99
66102;HTU21D;52883;51.094;5.880;2023-03-30T06:15:54;15.44;118.99
66102;HTU21D;52883;51.094;5.880;2023-03-30T06:18:24;15.47;118.99
66102;HTU21D;52883;51.094;5.880;2023-03-30T06:21:11;15.18;118.99
66102;HTU21D;52883;51.094;5.880;2023-03-30T06:23:50;14.93;118.99
66102;HTU21D;52883;51.094;5.880;2023-03-30T06:26:20;14.81;118.99
66102;HTU21D;52883;51.094;5.880;2023-03-30T06:28:46;14.78;118.99
66102;HTU21D;52883;51.094;5.880;2023-03-30T06:31:12;14.75;118.99
66102;HTU21D;52883;51.094;5.880;2023-03-30T06:33:39;14.78;118.99
66102;HTU21D;52883;51.094;5.880;2023-03-30T06:36:12;15.29;118.99
66102;HTU21D;52883;51.094;5.880;2023-03-30T06:38:40;16.20;118.99
66102;HTU21D;52883;51.094;5.880;2023-03-30T06:41:07;16.46;118.99
66102;HTU21D;52883;51.094;5.880;2023-03-30T06:43:38;15.62;118.99
66102;HTU21D;52883;51.094;5.880;2023-03-30T06:46:13;14.48;118.99
66102;HTU21D;52883;51.094;5.880;2023-03-30T06:48:43;13.76;118.99
66102;HTU21D;52883;51.094;5.880;2023-03-30T06:51:28;13.39;118.99
66102;HTU21D;52883;51.094;5.880;2023-03-30T06:53:55;13.23;118.99
66102;HTU21D;52883;51.094;5.880;2023-03-30T06:56:21;13.05;118.99
66102;HTU21D;52883;51.094;5.880;2023-03-30T06:59:02;13.00;118.99
66102;HTU21D;52883;51.094;5.880;2023-03-30T07:01:30;13.07;118.99
66102;HTU21D;52883;51.094;5.880;2023-03-30T07:04:12;13.07;118.99
66102;HTU21D;52883;51.094;5.880;2023-03-30T07:06:56;13.11;118.99
66102;HTU21D;52883;51.094;5.880;2023-03-30T07:09:23;13.14;118.99
66102;HTU21D;52883;51.094;5.880;2023-03-30T07:11:50;13.15;118.99
66102;HTU21D;52883;51.094;5.880;2023-03-30T07:14:15;13.21;118.99
66102;HTU21D;52883;51.094;5.880;2023-03-30T07:16:42;13.26;118.99
66102;HTU21D;52883;51.094;5.880;2023-03-30T07:19:08;13.33;118.99
66102;HTU21D;52883;51.094;5.880;2023-03-30T07:21:33;13.55;118.99
66102;HTU21D;52883;51.094;5.880;2023-03-30T07:23:59;13.69;118.99
66102;HTU21D;52883;51.094;5.880;2023-03-30T07:26:30;13.78;118.99
66102;HTU21D;52883;51.094;5.880;2023-03-30T07:29:05;13.93;118.99
66102;HTU21D;52883;51.094;5.880;2023-03-30T07:31:31;13.97;118.99
66102;HTU21D;52883;51.094;5.880;2023-03-30T07:33:58;13.83;118.99
66102;HTU21D;52883;51.094;5.880;2023-03-30T07:36:28;13.77;118.99
66102;HTU21D;52883;51.094;5.880;2023-03-30T07:38:54;14.24;118.99
66102;HTU21D;52883;51.094;5.880;2023-03-30T07:41:20;14.85;118.99
66102;HTU21D;52883;51.094;5.880;2023-03-30T07:43:49;15.23;118.99
66102;HTU21D;52883;51.094;5.880;2023-03-30T07:46:15;15.51;118.99
66102;HTU21D;52883;51.094;5.880;2023-03-30T07:48:45;15.72;118.99
66102;HTU21D;52883;51.094;5.880;2023-03-30T07:51:12;16.00;118.99
66102;HTU21D;52883;51.094;5.880;2023-03-30T07:53:47;16.31;118.99
66102;HTU21D;52883;51.094;5.880;2023-03-30T07:56:20;16.56;118.99
66102;HTU21D;52883;51.094;5.880;2023-03-30T07:58:48;16.77;118.99
66102;HTU21D;52883;51.094;5.880;2023-03-30T08:01:16;16.88;118.99
66102;HTU21D;52883;51.094;5.880;2023-03-30T08:03:54;16.96;118.99
66102;HTU21D;52883;51.094;5.880;2023-03-30T08:06:20;16.93;118.99
66102;HTU21D;52883;51.094;5.880;2023-03-30T08:08:49;17.09;118.99
66102;HTU21D;52883;51.094;5.880;2023-03-30T08:11:14;17.38;118.99
66102;HTU21D;52883;51.094;5.880;2023-03-30T08:13:40;17.18;118.99
66102;HTU21D;52883;51.094;5.880;2023-03-30T08:16:06;17.17;118.99
66102;HTU21D;52883;51.094;5.880;2023-03-30T08:18:33;17.44;118.99
66102;HTU21D;52883;51.094;5.880;2023-03-30T08:20:59;17.85;118.99
66102;HTU21D;52883;51.094;5.880;2023-03-30T08:23:24;17.91;118.99
66102;HTU21D;52883;51.094;5.880;2023-03-30T08:25:50;17.65;118.99
66102;HTU21D;52883;51.094;5.880;2023-03-30T08:28:19;17.01;118.99
66102;HTU21D;52883;51.094;5.880;2023-03-30T08:30:46;16.29;118.99
66102;HTU21D;52883;51.094;5.880;2023-03-30T08:33:12;15.81;118.99
66102;HTU21D;52883;51.094;5.880;2023-03-30T08:35:39;15.43;118.99
66102;HTU21D;52883;51.094;5.880;2023-03-30T08:38:05;15.45;118.99
66102;HTU21D;52883;51.094;5.880;2023-03-30T08:40:30;15.59;118.99
66102;HTU21D;52883;51.094;5.880;2023-03-30T08:45:40;16.20;118.99
66102;HTU21D;52883;51.094;5.880;2023-03-30T08:48:16;16.88;118.99
66102;HTU21D;52883;51.094;5.880;2023-03-30T08:50:49;17.68;118.99
66102;HTU21D;52883;51.094;5.880;2023-03-30T08:53:17;18.80;118.99
66102;HTU21D;52883;51.094;5.880;2023-03-30T08:55:50;19.38;118.99
66102;HTU21D;52883;51.094;5.880;2023-03-30T09:00:59;18.51;118.99
66102;HTU21D;52883;51.094;5.880;2023-03-30T09:06:35;17.26;118.99
66102;HTU21D;52883;51.094;5.880;2023-03-30T09:09:08;16.77;118.99
66102;HTU21D;52883;51.094;5.880;2023-03-30T09:11:36;16.35;118.99
66102;HTU21D;52883;51.094;5.880;2023-03-30T09:14:06;16.03;118.99
66102;HTU21D;52883;51.094;5.880;2023-03-30T09:16:56;15.77;118.99
66102;HTU21D;52883;51.094;5.880;2023-03-30T09:19:44;15.55;118.99
66102;HTU21D;52883;51.094;5.880;2023-03-30T09:22:12;15.36;118.99
66102;HTU21D;52883;51.094;5.880;2023-03-30T09:24:38;15.25;118.99
66102;HTU21D;52883;51.094;5.880;2023-03-30T09:27:33;15.23;118.99
66102;HTU21D;52883;51.094;5.880;2023-03-30T09:30:20;15.41;118.99
66102;HTU21D;52883;51.094;5.880;2023-03-30T09:33:09;15.57;118.99
66102;HTU21D;52883;51.094;5.880;2023-03-30T09:35:40;15.70;118.99
66102;HTU21D;52883;51.094;5.880;2023-03-30T09:38:10;15.73;118.99
66102;HTU21D;52883;51.094;5.880;2023-03-30T09:40:41;15.77;118.99
66102;HTU21D;52883;51.094;5.880;2023-03-30T09:45:56;15.74;118.99
66102;HTU21D;52883;51.094;5.880;2023-03-30T09:48:23;15.71;118.99
66102;HTU21D;52883;51.094;5.880;2023-03-30T09:50:49;15.66;118.99
66102;HTU21D;52883;51.094;5.880;2023-03-30T09:53:22;15.75;118.99
66102;HTU21D;52883;51.094;5.880;2023-03-30T09:55:58;15.98;118.99
66102;HTU21D;52883;51.094;5.880;2023-03-30T09:58:32;16.63;118.99
66102;HTU21D;52883;51.094;5.880;2023-03-30T10:01:07;17.26;118.99
66102;HTU21D;52883;51.094;5.880;2023-03-30T10:03:35;17.78;118.99
66102;HTU21D;52883;51.094;5.880;2023-03-30T10:06:04;18.37;118.99
66102;HTU21D;52883;51.094;5.880;2023-03-30T10:08:39;19.01;118.99
66102;HTU21D;52883;51.094;5.880;2023-03-30T10:11:06;19.55;118.99
66102;HTU21D;52883;51.094;5.880;2023-03-30T10:13:35;20.09;118.99
66102;HTU21D;52883;51.094;5.880;2023-03-30T10:16:09;20.15;118.99
66102;HTU21D;52883;51.094;5.880;2023-03-30T10:18:40;20.06;118.99
66102;HTU21D;52883;51.094;5.880;2023-03-30T10:23:42;20.29;118.99
66102;HTU21D;52883;51.094;5.880;2023-03-30T10:26:16;20.48;118.99
66102;HTU21D;52883;51.094;5.880;2023-03-30T10:28:53;20.95;118.99
66102;HTU21D;52883;51.094;5.880;2023-03-30T10:31:22;21.61;118.99
66102;HTU21D;52883;51.094;5.880;2023-03-30T10:33:55;22.01;118.99
66102;HTU21D;52883;51.094;5.880;2023-03-30T10:36:31;22.23;118.99
66102;HTU21D;52883;51.094;5.880;2023-03-30T10:39:23;21.99;118.99
66102;HTU21D;52883;51.094;5.880;2023-03-30T10:41:51;21.87;118.99
66102;HTU21D;52883;51.094;5.880;2023-03-30T10:44:30;21.72;118.99
66102;HTU21D;52883;51.094;5.880;2023-03-30T10:50:15;21.91;118.99
66102;HTU21D;52883;51.094;5.880;2023-03-30T10:53:03;21.69;118.99
66102;HTU21D;52883;51.094;5.880;2023-03-30T10:55:46;21.63;118.99
66102;HTU21D;52883;51.094;5.880;2023-03-30T11:01:34;22.22;118.99
66102;HTU21D;52883;51.094;5.880;2023-03-30T11:04:18;22.43;118.99
66102;HTU21D;52883;51.094;5.880;2023-03-30T11:06:50;22.04;118.99
66102;HTU21D;52883;51.094;5.880;2023-03-30T11:09:24;21.31;118.99
66102;HTU21D;52883;51.094;5.880;2023-03-30T11:11:59;19.76;118.99
66102;HTU21D;52883;51.094;5.880;2023-03-30T11:14:58;18.44;118.99
66102;HTU21D;52883;51.094;5.880;2023-03-30T11:17:31;17.65;118.99
66102;HTU21D;52883;51.094;5.880;2023-03-30T11:20:17;17.13;118.99
66102;HTU21D;52883;51.094;5.880;2023-03-30T11:25:34;17.13;118.99
66102;HTU21D;52883;51.094;5.880;2023-03-30T11:28:05;17.29;118.99
66102;HTU21D;52883;51.094;5.880;2023-03-30T11:30:38;17.17;118.99
66102;HTU21D;52883;51.094;5.880;2023-03-30T11:36:02;16.67;118.99
66102;HTU21D;52883;51.094;5.880;2023-03-30T11:38:50;16.33;118.99
66102;HTU21D;52883;51.094;5.880;2023-03-30T11:41:23;16.19;118.99
66102;HTU21D;52883;51.094;5.880;2023-03-30T11:43:53;16.28;118.99
66102;HTU21D;52883;51.094;5.880;2023-03-30T11:54:53;17.85;118.99
66102;HTU21D;52883;51.094;5.880;2023-03-30T11:57:51;18.27;118.99
66102;HTU21D;52883;51.094;5.880;2023-03-30T12:00:47;19.09;118.99
66102;HTU21D;52883;51.094;5.880;2023-03-30T12:03:35;20.42;118.99
66102;HTU21D;52883;51.094;5.880;2023-03-30T12:06:36;21.33;118.99
66102;HTU21D;52883;51.094;5.880;2023-03-30T12:11:50;21.08;118.99
66102;HTU21D;52883;51.094;5.880;2023-03-30T12:22:45;21.92;118.99
66102;HTU21D;52883;51.094;5.880;2023-03-30T12:25:31;22.09;118.99
66102;HTU21D;52883;51.094;5.880;2023-03-30T12:28:03;22.10;118.99
66102;HTU21D;52883;51.094;5.880;2023-03-30T12:30:44;22.19;118.99
66102;HTU21D;52883;51.094;5.880;2023-03-30T12:33:34;21.94;118.99
66102;HTU21D;52883;51.094;5.880;2023-03-30T12:36:03;21.55;118.99
66102;HTU21D;52883;51.094;5.880;2023-03-30T12:38:40;21.33;118.99
66102;HTU21D;52883;51.094;5.880;2023-03-30T12:41:12;21.36;115.05
66102;HTU21D;52883;51.094;5.880;2023-03-30T12:46:43;20.95;118.99
66102;HTU21D;52883;51.094;5.880;2023-03-30T12:54:52;21.69;118.99
66102;HTU21D;52883;51.094;5.880;2023-03-30T13:05:51;22.02;106.43
66102;HTU21D;52883;51.094;5.880;2023-03-30T13:13:52;22.62;115.79
66102;HTU21D;52883;51.094;5.880;2023-03-30T13:27:31;21.83;106.32
66102;HTU21D;52883;51.094;5.880;2023-03-30T13:40:24;17.85;118.99
66102;HTU21D;52883;51.094;5.880;2023-03-30T13:43:16;17.82;118.99
66102;HTU21D;52883;51.094;5.880;2023-03-30T13:46:06;17.49;118.99
66102;HTU21D;52883;51.094;5.880;2023-03-30T13:48:56;17.61;118.99
66102;HTU21D;52883;51.094;5.880;2023-03-30T13:51:28;17.64;118.99
66102;HTU21D;52883;51.094;5.880;2023-03-30T13:54:06;17.46;118.99
66102;HTU21D;52883;51.094;5.880;2023-03-30T13:56:38;17.19;118.99
66102;HTU21D;52883;51.094;5.880;2023-03-30T13:59:26;17.07;118.99
66102;HTU21D;52883;51.094;5.880;2023-03-30T14:01:57;17.10;118.99
66102;HTU21D;52883;51.094;5.880;2023-03-30T14:04:28;17.18;118.99
66102;HTU21D;52883;51.094;5.880;2023-03-30T14:06:54;17.30;118.99
66102;HTU21D;52883;51.094;5.880;2023-03-30T14:09:26;17.53;118.99
66102;HTU21D;52883;51.094;5.880;2023-03-30T14:12:03;18.35;118.99
66102;HTU21D;52883;51.094;5.880;2023-03-30T14:17:00;19.73;118.99
66102;HTU21D;52883;51.094;5.880;2023-03-30T14:19:34;20.26;118.99
66102;HTU21D;52883;51.094;5.880;2023-03-30T14:22:23;20.71;118.99
66102;HTU21D;52883;51.094;5.880;2023-03-30T14:25:01;20.81;118.99
66102;HTU21D;52883;51.094;5.880;2023-03-30T14:27:38;20.59;118.99
66102;HTU21D;52883;51.094;5.880;2023-03-30T14:30:20;20.19;116.75
66102;HTU21D;52883;51.094;5.880;2023-03-30T14:32:46;19.65;118.99
66102;HTU21D;52883;51.094;5.880;2023-03-30T14:35:16;19.14;118.99
66102;HTU21D;52883;51.094;5.880;2023-03-30T14:37:43;18.12;118.99
66102;HTU21D;52883;51.094;5.880;2023-03-30T14:40:14;16.00;118.99
66102;HTU21D;52883;51.094;5.880;2023-03-30T14:42:41;14.06;118.99
66102;HTU21D;52883;51.094;5.880;2023-03-30T14:45:08;13.16;118.99
66102;HTU21D;52883;51.094;5.880;2023-03-30T14:47:36;12.97;118.99
66102;HTU21D;52883;51.094;5.880;2023-03-30T14:50:06;12.99;118.99
66102;HTU21D;52883;51.094;5.880;2023-03-30T14:52:41;13.19;118.99
66102;HTU21D;52883;51.094;5.880;2023-03-30T14:55:13;13.33;118.99
66102;HTU21D;52883;51.094;5.880;2023-03-30T14:57:42;13.55;118.99
66102;HTU21D;52883;51.094;5.880;2023-03-30T15:00:14;13.58;118.99
66102;HTU21D;52883;51.094;5.880;2023-03-30T15:02:55;13.51;118.99
66102;HTU21D;52883;51.094;5.880;2023-03-30T15:05:25;13.44;118.99
66102;HTU21D;52883;51.094;5.880;2023-03-30T15:07:52;13.45;118.99
66102;HTU21D;52883;51.094;5.880;2023-03-30T15:10:24;13.47;118.99
66102;HTU21D;52883;51.094;5.880;2023-03-30T15:12:54;13.48;118.99
66102;HTU21D;52883;51.094;5.880;2023-03-30T15:15:26;13.49;118.99
66102;HTU21D;52883;51.094;5.880;2023-03-30T15:17:55;13.45;118.99
66102;HTU21D;52883;51.094;5.880;2023-03-30T15:20:26;13.38;118.99
66102;HTU21D;52883;51.094;5.880;2023-03-30T15:22:53;13.49;118.99
66102;HTU21D;52883;51.094;5.880;2023-03-30T15:25:31;13.79;118.99
66102;HTU21D;52883;51.094;5.880;2023-03-30T15:28:05;14.04;118.99
66102;HTU21D;52883;51.094;5.880;2023-03-30T15:30:38;14.39;118.99
66102;HTU21D;52883;51.094;5.880;2023-03-30T15:33:30;14.42;118.99
66102;HTU21D;52883;51.094;5.880;2023-03-30T15:36:09;14.19;118.99
66102;HTU21D;52883;51.094;5.880;2023-03-30T15:38:51;13.98;118.99
66102;HTU21D;52883;51.094;5.880;2023-03-30T15:41:22;13.92;118.99
66102;HTU21D;52883;51.094;5.880;2023-03-30T15:44:08;13.89;118.99
66102;HTU21D;52883;51.094;5.880;2023-03-30T15:46:36;13.85;118.99
66102;HTU21D;52883;51.094;5.880;2023-03-30T15:49:03;13.74;118.99
66102;HTU21D;52883;51.094;5.880;2023-03-30T15:51:35;13.48;118.99
66102;HTU21D;52883;51.094;5.880;2023-03-30T15:54:37;13.33;118.99
66102;HTU21D;52883;51.094;5.880;2023-03-30T15:57:17;13.33;118.99
66102;HTU21D;52883;51.094;5.880;2023-03-30T16:00:04;13.30;118.99
66102;HTU21D;52883;51.094;5.880;2023-03-30T16:04:59;13.17;118.99
66102;HTU21D;52883;51.094;5.880;2023-03-30T16:07:25;12.95;118.99
66102;HTU21D;52883;51.094;5.880;2023-03-30T16:09:51;12.85;118.99
66102;HTU21D;52883;51.094;5.880;2023-03-30T16:12:21;12.86;118.99
66102;HTU21D;52883;51.094;5.880;2023-03-30T16:14:48;12.75;118.99
66102;HTU21D;52883;51.094;5.880;2023-03-30T16:17:15;12.61;118.99
66102;HTU21D;52883;51.094;5.880;2023-03-30T16:19:42;12.52;118.99
66102;HTU21D;52883;51.094;5.880;2023-03-30T16:22:09;12.51;118.99
66102;HTU21D;52883;51.094;5.880;2023-03-30T16:24:36;12.51;118.99
66102;HTU21D;52883;51.094;5.880;2023-03-30T16:27:03;12.57;118.99
66102;HTU21D;52883;51.094;5.880;2023-03-30T16:29:29;12.59;118.99
66102;HTU21D;52883;51.094;5.880;2023-03-30T16:31:56;12.62;118.99
66102;HTU21D;52883;51.094;5.880;2023-03-30T16:34:22;12.66;118.99
66102;HTU21D;52883;51.094;5.880;2023-03-30T16:36:48;12.80;118.99
66102;HTU21D;52883;51.094;5.880;2023-03-30T16:39:23;13.02;118.99
66102;HTU21D;52883;51.094;5.880;2023-03-30T16:41:50;13.15;118.99
66102;HTU21D;52883;51.094;5.880;2023-03-30T16:44:18;13.17;118.99
66102;HTU21D;52883;51.094;5.880;2023-03-30T16:46:45;13.22;118.99
66102;HTU21D;52883;51.094;5.880;2023-03-30T16:49:20;13.24;118.99
66102;HTU21D;52883;51.094;5.880;2023-03-30T16:51:47;13.19;118.99
66102;HTU21D;52883;51.094;5.880;2023-03-30T16:54:12;13.00;118.99
66102;HTU21D;52883;51.094;5.880;2023-03-30T16:56:38;12.77;118.99
66102;HTU21D;52883;51.094;5.880;2023-03-30T16:59:05;12.58;118.99
66102;HTU21D;52883;51.094;5.880;2023-03-30T17:01:36;12.44;118.99
66102;HTU21D;52883;51.094;5.880;2023-03-30T17:04:01;12.36;118.99
66102;HTU21D;52883;51.094;5.880;2023-03-30T17:06:34;12.44;118.99
66102;HTU21D;52883;51.094;5.880;2023-03-30T17:08:59;12.61;118.99
66102;HTU21D;52883;51.094;5.880;2023-03-30T17:11:25;12.72;118.99
66102;HTU21D;52883;51.094;5.880;2023-03-30T17:13:50;12.76;118.99
66102;HTU21D;52883;51.094;5.880;2023-03-30T17:16:16;12.72;118.99
66102;HTU21D;52883;51.094;5.880;2023-03-30T17:18:42;12.67;118.99
66102;HTU21D;52883;51.094;5.880;2023-03-30T17:21:08;12.69;118.99
66102;HTU21D;52883;51.094;5.880;2023-03-30T17:23:41;12.66;118.99
66102;HTU21D;52883;51.094;5.880;2023-03-30T17:26:09;12.66;118.99
66102;HTU21D;52883;51.094;5.880;2023-03-30T17:28:36;12.62;118.99
66102;HTU21D;52883;51.094;5.880;2023-03-30T17:31:05;12.61;118.99
66102;HTU21D;52883;51.094;5.880;2023-03-30T17:33:31;12.53;118.99
66102;HTU21D;52883;51.094;5.880;2023-03-30T17:36:05;12.41;118.99
66102;HTU21D;52883;51.094;5.880;2023-03-30T17:38:34;12.32;118.99
66102;HTU21D;52883;51.094;5.880;2023-03-30T17:41:01;12.31;118.99
66102;HTU21D;52883;51.094;5.880;2023-03-30T17:43:26;12.33;118.99
66102;HTU21D;52883;51.094;5.880;2023-03-30T17:45:52;12.31;118.99
66102;HTU21D;52883;51.094;5.880;2023-03-30T17:48:20;12.16;118.99
66102;HTU21D;52883;51.094;5.880;2023-03-30T17:50:48;12.00;118.99